Seago Piraeus — OXVD2 — position and weather

sailwx.info

Track history (hours):
 
Tides and Currents Weather Stations Pressure Air Temp Water Temp Dewpoint Dewpoint Depression Visibility Wind Speed Wind Dir Waves Ship Positions

Seago Piraeus

Last reported at 2014-Aug-31 10:00 UTC. Time now 2014-Sep-01 11:44 UTC.
Position N 40°06' W 009°48'.

Length 294 m; draft 12.8 m.

Type: Ship (hazmat cat A). MMSI: 219117000.

Wind from 010 at 2 knots

Waves 0.5 meters (2 feet), 1 second period

Barometer 1016.7 mb
Air temperature 22.0 ° C
Visibility: greater than 5.4 NM
Dewpoint 18.5 ° C
Water temperature 19.0 ° C

Date/timePositionNaut miles runAvg speedWind from/ knotsBaromVisibWave heightAir tempDewpointWater temp
2014-Aug-31 10:00N 40°06' W 009°48'4813.8 010 / 21016.7 5.4 0.522.018.519.0
2014-Aug-31 06:30N 39°18' W 009°51'1213.3
2014-Aug-31 05:33N 39°06' W 009°52'1313.0
2014-Aug-31 04:33N 38°52' W 009°52'1713.0
2014-Aug-31 03:15N 38°36' W 009°50'1312.9
2014-Aug-31 02:13N 38°23' W 009°46'2313.1
2014-Aug-31 00:28N 38°00' W 009°39'1213.3
2014-Aug-30 23:32N 37°48' W 009°35'1312.9
2014-Aug-30 22:33N 37°36' W 009°32'1313.2
2014-Aug-30 21:33N 37°23' W 009°28'1313.3
2014-Aug-30 20:33N 37°10' W 009°23'1312.7
2014-Aug-30 19:33N 36°58' W 009°19'1212.2
2014-Aug-30 18:33N 36°48' W 009°11'1212.4
2014-Aug-30 17:33N 36°43' W 008°57'1312.5
2014-Aug-30 16:33N 36°41' W 008°41'1212.5
2014-Aug-30 15:33N 36°33' W 008°29'1212.4
2014-Aug-30 14:33N 36°30' W 008°15'1313.1
2014-Aug-30 13:33N 36°26' W 007°59'4013.3
2014-Aug-30 10:33N 36°13' W 007°12'1413.5
2014-Aug-30 09:32N 36°09' W 006°56'7912.1
2014-Aug-30 03:04N 36°01' W 005°19'13212.5
2014-Aug-29 16:31N 36°22' W 002°38'1413.6
2014-Aug-29 15:32N 36°24' W 002°21'1813.5
2014-Aug-29 14:12N 36°32' W 002°02'913.6
2014-Aug-29 13:32N 36°38' W 001°53'2014.2
2014-Aug-29 12:08N 36°52' W 001°36'1414.1
2014-Aug-29 11:08N 37°01' W 001°22'914.5
2014-Aug-29 10:31N 37°07' W 001°14'1514.3
2014-Aug-29 09:27N 37°17' W 000°59'1314.4
2014-Aug-29 08:33N 37°25' W 000°46'1414.0
2014-Aug-29 07:33N 37°35' W 000°33'1413.9
2014-Aug-29 06:33N 37°46' W 000°24'1414.1
2014-Aug-29 05:33N 37°58' W 000°14'1414.0
2014-Aug-29 04:33N 38°10' W 000°05'1413.6
2014-Aug-29 03:32N 38°22' E 000°05'1313.4
2014-Aug-29 02:32N 38°33' E 000°15'1313.4
2014-Aug-29 01:33N 38°43' E 000°24'1413.5
2014-Aug-29 00:30N 38°56' E 000°15'3313.8
2014-Aug-28 22:06N 39°21' W 000°12'611.5
2014-Aug-28 21:33N 39°26' W 000°18'1 1.2
2014-Aug-28 20:33N 39°26' W 000°19'0 0.0
2014-Aug-28 19:04N 39°26' W 000°19'0 0.0
2014-Aug-28 18:28N 39°26' W 000°19'0 0.0
2014-Aug-28 17:31N 39°26' W 000°19'0 0.0
2014-Aug-28 16:28N 39°26' W 000°19'0 0.0
2014-Aug-28 15:31N 39°26' W 000°19'0 0.0
2014-Aug-28 14:31N 39°26' W 000°19'0 0.0
2014-Aug-28 13:31N 39°26' W 000°19'0 0.0
2014-Aug-28 12:31N 39°26' W 000°19'0 0.0
2014-Aug-28 11:28N 39°26' W 000°19'3 2.9
2014-Aug-28 10:33N 39°25' W 000°16'6 5.9
2014-Aug-28 09:33N 39°23' W 000°09'1411.4
2014-Aug-28 08:22N 39°22' E 000°08'2613.9
2014-Aug-28 06:29N 39°18' E 000°42'1313.9
2014-Aug-28 05:33N 39°16' E 000°58'1413.6
2014-Aug-28 04:34N 39°14' E 001°16'1414.0
2014-Aug-28 03:33N 39°12' E 001°34'1413.7
2014-Aug-28 02:33N 39°10' E 001°51'1414.3
2014-Aug-28 01:33N 39°06' E 002°09'1414.5
2014-Aug-28 00:33N 39°03' E 002°27'1514.8
2014-Aug-27 23:33N 38°59' E 002°45'1414.4
2014-Aug-27 22:33N 38°55' E 003°03'1414.3
2014-Aug-27 21:33N 38°52' E 003°21'1414.1
2014-Aug-27 20:33N 38°49' E 003°39'1717.0
2014-Aug-27 19:34N 38°45' E 004°00'1110.5
2014-Aug-27 18:33N 38°42' E 004°13'1413.4
2014-Aug-27 17:33N 38°39' E 004°30'1513.6
2014-Aug-27 16:29N 38°36' E 004°48'1313.8
2014-Aug-27 15:33N 38°34' E 005°04'1513.6
2014-Aug-27 14:27N 38°30' E 005°23'1413.5
2014-Aug-27 13:27N 38°26' E 005°40'1213.3
2014-Aug-27 12:33N 38°23' E 005°54'2913.6
2014-Aug-27 10:25N 38°18' E 006°31'1414.1
2014-Aug-27 09:26N 38°16' E 006°48'1714.0
2014-Aug-27 08:14N 38°09' E 007°08'1714.7
2014-Aug-27 07:06N 38°06' E 007°29'2514.2
2014-Aug-27 05:22N 37°60' E 007°59'1213.9
2014-Aug-27 04:32N 37°57' E 008°13'1413.9
2014-Aug-27 03:33N 37°54' E 008°30'1414.0
2014-Aug-27 02:33N 37°50' E 008°47'1413.6
2014-Aug-27 01:33N 37°47' E 009°04'1413.8
2014-Aug-27 00:33N 37°45' E 009°21'1413.6
2014-Aug-26 23:33N 37°43' E 009°38'1413.6
2014-Aug-26 22:33N 37°40' E 009°55'1413.8
2014-Aug-26 21:33N 37°39' E 010°12'1414.1
2014-Aug-26 20:33N 37°36' E 010°30'1414.2
2014-Aug-26 19:33N 37°33' E 010°47'1514.5
2014-Aug-26 18:33N 37°29' E 011°05'1514.6
2014-Aug-26 17:34N 37°23' E 011°22'1514.8
2014-Aug-26 16:34N 37°16' E 011°38'1514.8
2014-Aug-26 15:33N 37°10' E 011°55'1514.9
2014-Aug-26 14:33N 37°04' E 012°12'1515.0
2014-Aug-26 13:34N 37°00' E 012°30'1414.4
2014-Aug-26 12:34N 36°56' E 012°48'1414.4
2014-Aug-26 11:34N 36°52' E 013°05'1514.4
2014-Aug-26 10:33N 36°48' E 013°22'1414.4
2014-Aug-26 09:34N 36°45' E 013°40'22014.1
2014-Aug-25 18:00N 36°24' E 018°12'25114.2 360 / 141014.810.8 0.525.4 25.0
2014-Aug-25 00:17N 36°38' E 023°24'1514.8
2014-Aug-24 23:16N 36°51' E 023°34'1215.3
2014-Aug-24 22:31N 37°00' E 023°42'1515.6
2014-Aug-24 21:33N 37°13' E 023°52'1514.5
2014-Aug-24 20:33N 37°26' E 024°02'1414.2
2014-Aug-24 19:33N 37°38' E 024°11'1713.9
2014-Aug-24 18:20N 37°50' E 024°25'1114.2
2014-Aug-24 17:33N 37°57' E 024°37'1514.0
2014-Aug-24 16:27N 38°06' E 024°52'1513.9
2014-Aug-24 15:24N 38°14' E 025°08'1614.5
2014-Aug-24 14:18N 38°23' E 025°25'1214.5
2014-Aug-24 13:29N 38°29' E 025°38'1314.0
2014-Aug-24 12:33N 38°37' E 025°51'121 3.5
2014-Aug-23 02:33N 40°29' E 026°51'4314.4
2014-Aug-22 23:33N 40°47' E 027°42'1211.9
2014-Aug-22 22:33N 40°39' E 027°54'1514.4
2014-Aug-22 21:32N 40°33' E 028°12'1414.7
2014-Aug-22 20:33N 40°27' E 028°29'2713.4
2014-Aug-22 18:33N 40°25' E 029°04'1 0.1
2014-Aug-22 07:22N 40°26' E 029°04'1512.2
2014-Aug-22 06:09N 40°28' E 028°45'812.5
2014-Aug-22 05:31N 40°36' E 028°43'1313.5
2014-Aug-22 04:33N 40°49' E 028°42'  
Track history (hours):
 
Tides and Currents Weather Stations Pressure Air Temp Water Temp Dewpoint Dewpoint Depression Visibility Wind Speed Wind Dir Waves Ship Positions

Seago Piraeus

Last reported at 2014-Aug-31 10:00 UTC. Time now 2014-Sep-01 11:44 UTC.
Position N 40°06' W 009°48'.

Length 294 m; draft 12.8 m.

Type: Ship (hazmat cat A). MMSI: 219117000.

Wind from 010 at 2 knots

Waves 0.5 meters (2 feet), 1 second period

Barometer 1016.7 mb
Air temperature 22.0 ° C
Visibility: greater than 5.4 NM
Dewpoint 18.5 ° C
Water temperature 19.0 ° C

Date/timePositionNaut miles runAvg speedWind from/ knotsBaromVisibWave heightAir tempDewpointWater temp
2014-Aug-31 10:00N 40°06' W 009°48'4813.8 010 / 21016.7 5.4 0.522.018.519.0
2014-Aug-31 06:30N 39°18' W 009°51'1213.3
2014-Aug-31 05:33N 39°06' W 009°52'1313.0
2014-Aug-31 04:33N 38°52' W 009°52'1713.0
2014-Aug-31 03:15N 38°36' W 009°50'1312.9
2014-Aug-31 02:13N 38°23' W 009°46'2313.1
2014-Aug-31 00:28N 38°00' W 009°39'1213.3
2014-Aug-30 23:32N 37°48' W 009°35'1312.9
2014-Aug-30 22:33N 37°36' W 009°32'1313.2
2014-Aug-30 21:33N 37°23' W 009°28'1313.3
2014-Aug-30 20:33N 37°10' W 009°23'1312.7
2014-Aug-30 19:33N 36°58' W 009°19'1212.2
2014-Aug-30 18:33N 36°48' W 009°11'1212.4
2014-Aug-30 17:33N 36°43' W 008°57'1312.5
2014-Aug-30 16:33N 36°41' W 008°41'1212.5
2014-Aug-30 15:33N 36°33' W 008°29'1212.4
2014-Aug-30 14:33N 36°30' W 008°15'1313.1
2014-Aug-30 13:33N 36°26' W 007°59'4013.3
2014-Aug-30 10:33N 36°13' W 007°12'1413.5
2014-Aug-30 09:32N 36°09' W 006°56'7912.1
2014-Aug-30 03:04N 36°01' W 005°19'13212.5
2014-Aug-29 16:31N 36°22' W 002°38'1413.6
2014-Aug-29 15:32N 36°24' W 002°21'1813.5
2014-Aug-29 14:12N 36°32' W 002°02'913.6
2014-Aug-29 13:32N 36°38' W 001°53'2014.2
2014-Aug-29 12:08N 36°52' W 001°36'1414.1
2014-Aug-29 11:08N 37°01' W 001°22'914.5
2014-Aug-29 10:31N 37°07' W 001°14'1514.3
2014-Aug-29 09:27N 37°17' W 000°59'1314.4
2014-Aug-29 08:33N 37°25' W 000°46'1414.0
2014-Aug-29 07:33N 37°35' W 000°33'1413.9
2014-Aug-29 06:33N 37°46' W 000°24'1414.1
2014-Aug-29 05:33N 37°58' W 000°14'1414.0
2014-Aug-29 04:33N 38°10' W 000°05'1413.6
2014-Aug-29 03:32N 38°22' E 000°05'1313.4
2014-Aug-29 02:32N 38°33' E 000°15'1313.4
2014-Aug-29 01:33N 38°43' E 000°24'1413.5
2014-Aug-29 00:30N 38°56' E 000°15'3313.8
2014-Aug-28 22:06N 39°21' W 000°12'611.5
2014-Aug-28 21:33N 39°26' W 000°18'1 1.2
2014-Aug-28 20:33N 39°26' W 000°19'0 0.0
2014-Aug-28 19:04N 39°26' W 000°19'0 0.0
2014-Aug-28 18:28N 39°26' W 000°19'0 0.0
2014-Aug-28 17:31N 39°26' W 000°19'0 0.0
2014-Aug-28 16:28N 39°26' W 000°19'0 0.0
2014-Aug-28 15:31N 39°26' W 000°19'0 0.0
2014-Aug-28 14:31N 39°26' W 000°19'0 0.0
2014-Aug-28 13:31N 39°26' W 000°19'0 0.0
2014-Aug-28 12:31N 39°26' W 000°19'0 0.0
2014-Aug-28 11:28N 39°26' W 000°19'3 2.9
2014-Aug-28 10:33N 39°25' W 000°16'6 5.9
2014-Aug-28 09:33N 39°23' W 000°09'1411.4
2014-Aug-28 08:22N 39°22' E 000°08'2613.9
2014-Aug-28 06:29N 39°18' E 000°42'1313.9
2014-Aug-28 05:33N 39°16' E 000°58'1413.6
2014-Aug-28 04:34N 39°14' E 001°16'1414.0
2014-Aug-28 03:33N 39°12' E 001°34'1413.7
2014-Aug-28 02:33N 39°10' E 001°51'1414.3
2014-Aug-28 01:33N 39°06' E 002°09'1414.5
2014-Aug-28 00:33N 39°03' E 002°27'1514.8
2014-Aug-27 23:33N 38°59' E 002°45'1414.4
2014-Aug-27 22:33N 38°55' E 003°03'1414.3
2014-Aug-27 21:33N 38°52' E 003°21'1414.1
2014-Aug-27 20:33N 38°49' E 003°39'1717.0
2014-Aug-27 19:34N 38°45' E 004°00'1110.5
2014-Aug-27 18:33N 38°42' E 004°13'1413.4
2014-Aug-27 17:33N 38°39' E 004°30'1513.6
2014-Aug-27 16:29N 38°36' E 004°48'1313.8
2014-Aug-27 15:33N 38°34' E 005°04'1513.6
2014-Aug-27 14:27N 38°30' E 005°23'1413.5
2014-Aug-27 13:27N 38°26' E 005°40'1213.3
2014-Aug-27 12:33N 38°23' E 005°54'2913.6
2014-Aug-27 10:25N 38°18' E 006°31'1414.1
2014-Aug-27 09:26N 38°16' E 006°48'1714.0
2014-Aug-27 08:14N 38°09' E 007°08'1714.7
2014-Aug-27 07:06N 38°06' E 007°29'2514.2
2014-Aug-27 05:22N 37°60' E 007°59'1213.9
2014-Aug-27 04:32N 37°57' E 008°13'1413.9
2014-Aug-27 03:33N 37°54' E 008°30'1414.0
2014-Aug-27 02:33N 37°50' E 008°47'1413.6
2014-Aug-27 01:33N 37°47' E 009°04'1413.8
2014-Aug-27 00:33N 37°45' E 009°21'1413.6
2014-Aug-26 23:33N 37°43' E 009°38'1413.6
2014-Aug-26 22:33N 37°40' E 009°55'1413.8
2014-Aug-26 21:33N 37°39' E 010°12'1414.1
2014-Aug-26 20:33N 37°36' E 010°30'1414.2
2014-Aug-26 19:33N 37°33' E 010°47'1514.5
2014-Aug-26 18:33N 37°29' E 011°05'1514.6
2014-Aug-26 17:34N 37°23' E 011°22'1514.8
2014-Aug-26 16:34N 37°16' E 011°38'1514.8
2014-Aug-26 15:33N 37°10' E 011°55'1514.9
2014-Aug-26 14:33N 37°04' E 012°12'1515.0
2014-Aug-26 13:34N 37°00' E 012°30'1414.4
2014-Aug-26 12:34N 36°56' E 012°48'1414.4
2014-Aug-26 11:34N 36°52' E 013°05'1514.4
2014-Aug-26 10:33N 36°48' E 013°22'1414.4
2014-Aug-26 09:34N 36°45' E 013°40'22014.1
2014-Aug-25 18:00N 36°24' E 018°12'25114.2 360 / 141014.810.8 0.525.4 25.0
2014-Aug-25 00:17N 36°38' E 023°24'1514.8
2014-Aug-24 23:16N 36°51' E 023°34'1215.3
2014-Aug-24 22:31N 37°00' E 023°42'1515.6
2014-Aug-24 21:33N 37°13' E 023°52'1514.5
2014-Aug-24 20:33N 37°26' E 024°02'1414.2
2014-Aug-24 19:33N 37°38' E 024°11'1713.9
2014-Aug-24 18:20N 37°50' E 024°25'1114.2
2014-Aug-24 17:33N 37°57' E 024°37'1514.0
2014-Aug-24 16:27N 38°06' E 024°52'1513.9
2014-Aug-24 15:24N 38°14' E 025°08'1614.5
2014-Aug-24 14:18N 38°23' E 025°25'1214.5
2014-Aug-24 13:29N 38°29' E 025°38'1314.0
2014-Aug-24 12:33N 38°37' E 025°51'121 3.5
2014-Aug-23 02:33N 40°29' E 026°51'4314.4
2014-Aug-22 23:33N 40°47' E 027°42'1211.9
2014-Aug-22 22:33N 40°39' E 027°54'1514.4
2014-Aug-22 21:32N 40°33' E 028°12'1414.7
2014-Aug-22 20:33N 40°27' E 028°29'2713.4
2014-Aug-22 18:33N 40°25' E 029°04'1 0.1
2014-Aug-22 07:22N 40°26' E 029°04'1512.2
2014-Aug-22 06:09N 40°28' E 028°45'812.5
2014-Aug-22 05:31N 40°36' E 028°43'1313.5
2014-Aug-22 04:33N 40°49' E 028°42'  

Dump ship's entire track history